sensor_id;sensor_type;location;lat;lon;timestamp;P1;durP1;ratioP1;P2;durP2;ratioP2
58015;SDS011;43809;52.110;20.964;2023-06-22T00:00:41;25.43;;;22.73;;
58015;SDS011;43809;52.110;20.964;2023-06-22T00:02:42;23.57;;;21.13;;
58015;SDS011;43809;52.110;20.964;2023-06-22T00:04:42;24.63;;;22.03;;
58015;SDS011;43809;52.110;20.964;2023-06-22T00:06:42;22.02;;;19.73;;
58015;SDS011;43809;52.110;20.964;2023-06-22T00:08:43;21.63;;;19.00;;
58015;SDS011;43809;52.110;20.964;2023-06-22T00:10:43;18.33;;;16.42;;
58015;SDS011;43809;52.110;20.964;2023-06-22T00:12:43;15.18;;;13.57;;
58015;SDS011;43809;52.110;20.964;2023-06-22T00:14:44;12.53;;;11.27;;
58015;SDS011;43809;52.110;20.964;2023-06-22T00:16:44;23.52;;;21.02;;
58015;SDS011;43809;52.110;20.964;2023-06-22T00:18:48;22.02;;;19.83;;
58015;SDS011;43809;52.110;20.964;2023-06-22T00:20:48;16.30;;;14.60;;
58015;SDS011;43809;52.110;20.964;2023-06-22T00:22:49;14.68;;;13.27;;
58015;SDS011;43809;52.110;20.964;2023-06-22T00:25:06;15.73;;;14.23;;
58015;SDS011;43809;52.110;20.964;2023-06-22T00:27:07;14.55;;;13.05;;
58015;SDS011;43809;52.110;20.964;2023-06-22T00:29:07;18.10;;;16.23;;
58015;SDS011;43809;52.110;20.964;2023-06-22T00:31:07;16.57;;;14.87;;
58015;SDS011;43809;52.110;20.964;2023-06-22T00:33:07;13.20;;;11.90;;
58015;SDS011;43809;52.110;20.964;2023-06-22T00:35:08;15.83;;;14.27;;
58015;SDS011;43809;52.110;20.964;2023-06-22T00:37:09;12.35;;;11.13;;
58015;SDS011;43809;52.110;20.964;2023-06-22T00:39:12;13.98;;;12.68;;
58015;SDS011;43809;52.110;20.964;2023-06-22T00:43:32;16.52;;;14.93;;
58015;SDS011;43809;52.110;20.964;2023-06-22T00:45:32;14.23;;;12.73;;
58015;SDS011;43809;52.110;20.964;2023-06-22T00:47:34;12.02;;;10.82;;
58015;SDS011;43809;52.110;20.964;2023-06-22T00:49:35;11.57;;;10.48;;
58015;SDS011;43809;52.110;20.964;2023-06-22T00:51:36;12.33;;;11.13;;
58015;SDS011;43809;52.110;20.964;2023-06-22T00:53:38;12.68;;;11.48;;
58015;SDS011;43809;52.110;20.964;2023-06-22T00:55:41;9.77;;;8.88;;
58015;SDS011;43809;52.110;20.964;2023-06-22T00:57:44;8.98;;;8.18;;
58015;SDS011;43809;52.110;20.964;2023-06-22T00:59:45;8.75;;;7.85;;
58015;SDS011;43809;52.110;20.964;2023-06-22T01:01:47;13.05;;;11.68;;
58015;SDS011;43809;52.110;20.964;2023-06-22T01:03:47;10.15;;;9.15;;
58015;SDS011;43809;52.110;20.964;2023-06-22T01:05:48;14.82;;;13.32;;
58015;SDS011;43809;52.110;20.964;2023-06-22T01:10:57;10.70;;;9.70;;
58015;SDS011;43809;52.110;20.964;2023-06-22T01:12:25;9.80;;;8.90;;
58015;SDS011;43809;52.110;20.964;2023-06-22T01:14:46;11.43;;;10.30;;
58015;SDS011;43809;52.110;20.964;2023-06-22T01:16:47;9.55;;;8.65;;
58015;SDS011;43809;52.110;20.964;2023-06-22T01:18:49;10.27;;;9.18;;
58015;SDS011;43809;52.110;20.964;2023-06-22T01:24:59;16.90;;;15.15;;
58015;SDS011;43809;52.110;20.964;2023-06-22T01:29:22;13.23;;;11.40;;
58015;SDS011;43809;52.110;20.964;2023-06-22T01:31:25;20.98;;;18.20;;
58015;SDS011;43809;52.110;20.964;2023-06-22T01:33:26;20.25;;;18.08;;
58015;SDS011;43809;52.110;20.964;2023-06-22T01:35:27;15.00;;;13.50;;
58015;SDS011;43809;52.110;20.964;2023-06-22T01:37:27;13.48;;;12.18;;
58015;SDS011;43809;52.110;20.964;2023-06-22T01:39:28;13.23;;;11.88;;
58015;SDS011;43809;52.110;20.964;2023-06-22T01:41:33;12.70;;;11.50;;
58015;SDS011;43809;52.110;20.964;2023-06-22T01:43:36;10.25;;;9.25;;
58015;SDS011;43809;52.110;20.964;2023-06-22T01:45:38;10.38;;;9.35;;
58015;SDS011;43809;52.110;20.964;2023-06-22T01:47:38;12.38;;;11.15;;
58015;SDS011;43809;52.110;20.964;2023-06-22T01:49:39;10.02;;;9.02;;
58015;SDS011;43809;52.110;20.964;2023-06-22T01:51:40;8.13;;;7.43;;
58015;SDS011;43809;52.110;20.964;2023-06-22T01:58:03;8.80;;;7.90;;
58015;SDS011;43809;52.110;20.964;2023-06-22T02:00:04;11.52;;;9.45;;
58015;SDS011;43809;52.110;20.964;2023-06-22T02:02:08;13.05;;;9.75;;
58015;SDS011;43809;52.110;20.964;2023-06-22T02:04:12;10.20;;;9.20;;
58015;SDS011;43809;52.110;20.964;2023-06-22T02:06:27;10.25;;;9.18;;
58015;SDS011;43809;52.110;20.964;2023-06-22T02:08:49;13.13;;;10.50;;
58015;SDS011;43809;52.110;20.964;2023-06-22T02:10:51;12.90;;;11.40;;
58015;SDS011;43809;52.110;20.964;2023-06-22T02:12:53;13.20;;;11.80;;
58015;SDS011;43809;52.110;20.964;2023-06-22T02:14:53;15.48;;;13.13;;
58015;SDS011;43809;52.110;20.964;2023-06-22T02:16:54;12.10;;;10.90;;
58015;SDS011;43809;52.110;20.964;2023-06-22T02:18:55;10.57;;;9.47;;
58015;SDS011;43809;52.110;20.964;2023-06-22T02:21:03;10.70;;;9.27;;
58015;SDS011;43809;52.110;20.964;2023-06-22T02:23:03;10.05;;;9.05;;
58015;SDS011;43809;52.110;20.964;2023-06-22T02:25:03;12.13;;;10.93;;
58015;SDS011;43809;52.110;20.964;2023-06-22T02:27:03;9.57;;;8.57;;
58015;SDS011;43809;52.110;20.964;2023-06-22T02:29:05;16.42;;;13.57;;
58015;SDS011;43809;52.110;20.964;2023-06-22T02:31:20;17.63;;;15.03;;
58015;SDS011;43809;52.110;20.964;2023-06-22T02:33:20;20.73;;;17.83;;
58015;SDS011;43809;52.110;20.964;2023-06-22T02:35:21;20.08;;;16.75;;
58015;SDS011;43809;52.110;20.964;2023-06-22T02:37:21;16.60;;;14.88;;
58015;SDS011;43809;52.110;20.964;2023-06-22T02:39:25;13.48;;;12.10;;
58015;SDS011;43809;52.110;20.964;2023-06-22T02:41:25;15.40;;;13.80;;
58015;SDS011;43809;52.110;20.964;2023-06-22T02:43:25;14.00;;;12.60;;
58015;SDS011;43809;52.110;20.964;2023-06-22T02:45:26;13.00;;;11.70;;
58015;SDS011;43809;52.110;20.964;2023-06-22T02:47:32;14.57;;;13.10;;
58015;SDS011;43809;52.110;20.964;2023-06-22T02:49:32;16.60;;;14.80;;
58015;SDS011;43809;52.110;20.964;2023-06-22T02:51:33;19.77;;;16.90;;
58015;SDS011;43809;52.110;20.964;2023-06-22T02:55:57;21.95;;;19.50;;
58015;SDS011;43809;52.110;20.964;2023-06-22T02:57:57;23.67;;;20.70;;
58015;SDS011;43809;52.110;20.964;2023-06-22T02:59:59;29.38;;;24.58;;
58015;SDS011;43809;52.110;20.964;2023-06-22T03:01:59;30.70;;;25.45;;
58015;SDS011;43809;52.110;20.964;2023-06-22T03:04:00;25.33;;;22.58;;
58015;SDS011;43809;52.110;20.964;2023-06-22T03:06:18;31.03;;;27.00;;
58015;SDS011;43809;52.110;20.964;2023-06-22T03:08:23;31.55;;;26.45;;
58015;SDS011;43809;52.110;20.964;2023-06-22T03:10:23;28.55;;;24.02;;
58015;SDS011;43809;52.110;20.964;2023-06-22T03:12:24;35.93;;;26.77;;
58015;SDS011;43809;52.110;20.964;2023-06-22T03:14:40;39.20;;;30.37;;
58015;SDS011;43809;52.110;20.964;2023-06-22T03:16:40;34.25;;;27.55;;
58015;SDS011;43809;52.110;20.964;2023-06-22T03:18:40;33.15;;;27.35;;
58015;SDS011;43809;52.110;20.964;2023-06-22T03:20:41;31.10;;;23.57;;
58015;SDS011;43809;52.110;20.964;2023-06-22T03:22:41;36.40;;;28.08;;
58015;SDS011;43809;52.110;20.964;2023-06-22T03:24:41;38.20;;;29.02;;
58015;SDS011;43809;52.110;20.964;2023-06-22T03:26:42;35.90;;;28.88;;
58015;SDS011;43809;52.110;20.964;2023-06-22T03:28:42;36.57;;;29.67;;
58015;SDS011;43809;52.110;20.964;2023-06-22T03:30:42;36.67;;;29.47;;
58015;SDS011;43809;52.110;20.964;2023-06-22T03:32:42;38.17;;;30.37;;
58015;SDS011;43809;52.110;20.964;2023-06-22T03:34:43;42.85;;;32.10;;
58015;SDS011;43809;52.110;20.964;2023-06-22T03:36:46;38.25;;;30.58;;
58015;SDS011;43809;52.110;20.964;2023-06-22T03:38:47;36.33;;;29.17;;
58015;SDS011;43809;52.110;20.964;2023-06-22T03:40:47;37.45;;;29.92;;
58015;SDS011;43809;52.110;20.964;2023-06-22T03:42:47;39.42;;;30.63;;
58015;SDS011;43809;52.110;20.964;2023-06-22T03:44:48;43.07;;;31.73;;
58015;SDS011;43809;52.110;20.964;2023-06-22T03:46:48;44.47;;;34.00;;
58015;SDS011;43809;52.110;20.964;2023-06-22T03:48:48;47.25;;;34.08;;
58015;SDS011;43809;52.110;20.964;2023-06-22T03:50:48;39.67;;;31.07;;
58015;SDS011;43809;52.110;20.964;2023-06-22T03:52:48;43.33;;;31.53;;
58015;SDS011;43809;52.110;20.964;2023-06-22T03:54:49;41.63;;;32.05;;
58015;SDS011;43809;52.110;20.964;2023-06-22T03:56:49;40.58;;;31.67;;
58015;SDS011;43809;52.110;20.964;2023-06-22T03:58:52;42.53;;;32.22;;
58015;SDS011;43809;52.110;20.964;2023-06-22T04:01:00;42.05;;;30.80;;
58015;SDS011;43809;52.110;20.964;2023-06-22T04:03:00;43.45;;;32.78;;
58015;SDS011;43809;52.110;20.964;2023-06-22T04:05:00;39.53;;;29.13;;
58015;SDS011;43809;52.110;20.964;2023-06-22T04:07:01;41.77;;;31.47;;
58015;SDS011;43809;52.110;20.964;2023-06-22T04:09:01;37.83;;;29.37;;
58015;SDS011;43809;52.110;20.964;2023-06-22T04:11:01;42.72;;;30.73;;
58015;SDS011;43809;52.110;20.964;2023-06-22T04:13:02;38.42;;;28.50;;
58015;SDS011;43809;52.110;20.964;2023-06-22T04:15:02;40.10;;;31.17;;
58015;SDS011;43809;52.110;20.964;2023-06-22T04:17:02;38.08;;;29.67;;
58015;SDS011;43809;52.110;20.964;2023-06-22T04:19:02;33.35;;;27.17;;
58015;SDS011;43809;52.110;20.964;2023-06-22T04:21:02;37.80;;;29.67;;
58015;SDS011;43809;52.110;20.964;2023-06-22T04:23:03;34.23;;;26.13;;
58015;SDS011;43809;52.110;20.964;2023-06-22T04:25:03;36.10;;;28.40;;
58015;SDS011;43809;52.110;20.964;2023-06-22T04:27:03;34.63;;;26.58;;
58015;SDS011;43809;52.110;20.964;2023-06-22T04:29:04;32.95;;;26.80;;
58015;SDS011;43809;52.110;20.964;2023-06-22T04:31:05;30.30;;;25.17;;
58015;SDS011;43809;52.110;20.964;2023-06-22T04:33:05;35.58;;;27.90;;
58015;SDS011;43809;52.110;20.964;2023-06-22T04:37:11;27.38;;;24.05;;
58015;SDS011;43809;52.110;20.964;2023-06-22T04:39:15;31.00;;;25.52;;
58015;SDS011;43809;52.110;20.964;2023-06-22T04:41:15;31.23;;;26.13;;
58015;SDS011;43809;52.110;20.964;2023-06-22T04:43:23;27.00;;;23.50;;
58015;SDS011;43809;52.110;20.964;2023-06-22T04:45:23;34.95;;;27.25;;
58015;SDS011;43809;52.110;20.964;2023-06-22T04:47:25;32.40;;;25.75;;
58015;SDS011;43809;52.110;20.964;2023-06-22T04:49:25;30.52;;;26.08;;
58015;SDS011;43809;52.110;20.964;2023-06-22T04:51:32;28.60;;;24.13;;
58015;SDS011;43809;52.110;20.964;2023-06-22T04:55:58;32.08;;;25.77;;
58015;SDS011;43809;52.110;20.964;2023-06-22T04:57:59;33.95;;;27.20;;
58015;SDS011;43809;52.110;20.964;2023-06-22T05:00:04;32.08;;;26.50;;
58015;SDS011;43809;52.110;20.964;2023-06-22T05:04:17;27.45;;;23.20;;
58015;SDS011;43809;52.110;20.964;2023-06-22T05:06:17;25.40;;;21.17;;
58015;SDS011;43809;52.110;20.964;2023-06-22T05:08:17;32.95;;;24.80;;
58015;SDS011;43809;52.110;20.964;2023-06-22T05:10:21;25.33;;;21.43;;
58015;SDS011;43809;52.110;20.964;2023-06-22T05:12:21;28.60;;;24.27;;
58015;SDS011;43809;52.110;20.964;2023-06-22T05:14:22;27.07;;;21.80;;
58015;SDS011;43809;52.110;20.964;2023-06-22T05:16:24;24.60;;;21.20;;
58015;SDS011;43809;52.110;20.964;2023-06-22T05:18:25;24.02;;;20.27;;
58015;SDS011;43809;52.110;20.964;2023-06-22T05:20:25;24.60;;;20.70;;
58015;SDS011;43809;52.110;20.964;2023-06-22T05:22:25;28.13;;;23.97;;
58015;SDS011;43809;52.110;20.964;2023-06-22T05:24:25;25.17;;;21.87;;
58015;SDS011;43809;52.110;20.964;2023-06-22T05:26:26;25.27;;;21.53;;
58015;SDS011;43809;52.110;20.964;2023-06-22T05:28:26;26.02;;;21.80;;
58015;SDS011;43809;52.110;20.964;2023-06-22T05:30:26;23.35;;;20.17;;
58015;SDS011;43809;52.110;20.964;2023-06-22T05:32:27;26.58;;;21.65;;
58015;SDS011;43809;52.110;20.964;2023-06-22T05:34:27;24.03;;;20.70;;
58015;SDS011;43809;52.110;20.964;2023-06-22T05:36:27;26.23;;;21.37;;
58015;SDS011;43809;52.110;20.964;2023-06-22T05:38:45;25.85;;;20.77;;
58015;SDS011;43809;52.110;20.964;2023-06-22T05:40:46;23.65;;;20.52;;
58015;SDS011;43809;52.110;20.964;2023-06-22T05:42:46;25.00;;;20.53;;
58015;SDS011;43809;52.110;20.964;2023-06-22T05:44:46;25.90;;;21.30;;
58015;SDS011;43809;52.110;20.964;2023-06-22T05:49:05;23.95;;;19.55;;
58015;SDS011;43809;52.110;20.964;2023-06-22T05:51:05;20.33;;;17.53;;
58015;SDS011;43809;52.110;20.964;2023-06-22T05:53:06;22.90;;;18.23;;
58015;SDS011;43809;52.110;20.964;2023-06-22T05:55:06;24.25;;;20.73;;
58015;SDS011;43809;52.110;20.964;2023-06-22T05:57:07;22.27;;;18.48;;
58015;SDS011;43809;52.110;20.964;2023-06-22T05:59:07;21.53;;;18.63;;
58015;SDS011;43809;52.110;20.964;2023-06-22T06:01:07;23.13;;;18.80;;
58015;SDS011;43809;52.110;20.964;2023-06-22T06:03:07;23.90;;;18.90;;
58015;SDS011;43809;52.110;20.964;2023-06-22T06:05:08;23.60;;;19.92;;
58015;SDS011;43809;52.110;20.964;2023-06-22T06:07:08;24.17;;;20.00;;
58015;SDS011;43809;52.110;20.964;2023-06-22T06:09:08;21.73;;;19.37;;
58015;SDS011;43809;52.110;20.964;2023-06-22T06:11:22;21.27;;;17.77;;
58015;SDS011;43809;52.110;20.964;2023-06-22T06:13:23;19.02;;;16.00;;
58015;SDS011;43809;52.110;20.964;2023-06-22T06:15:23;21.83;;;17.70;;
58015;SDS011;43809;52.110;20.964;2023-06-22T06:17:23;23.95;;;19.15;;
58015;SDS011;43809;52.110;20.964;2023-06-22T06:19:23;24.47;;;19.07;;
58015;SDS011;43809;52.110;20.964;2023-06-22T06:21:24;22.77;;;19.40;;
58015;SDS011;43809;52.110;20.964;2023-06-22T06:23:34;19.38;;;16.30;;
58015;SDS011;43809;52.110;20.964;2023-06-22T06:25:34;20.40;;;16.90;;
58015;SDS011;43809;52.110;20.964;2023-06-22T06:27:35;20.47;;;17.20;;
58015;SDS011;43809;52.110;20.964;2023-06-22T06:29:35;17.97;;;15.77;;
58015;SDS011;43809;52.110;20.964;2023-06-22T06:31:35;23.70;;;17.67;;
58015;SDS011;43809;52.110;20.964;2023-06-22T06:33:36;18.90;;;16.42;;
58015;SDS011;43809;52.110;20.964;2023-06-22T06:35:36;21.98;;;16.75;;
58015;SDS011;43809;52.110;20.964;2023-06-22T06:37:41;16.83;;;15.03;;
58015;SDS011;43809;52.110;20.964;2023-06-22T06:39:59;16.88;;;14.38;;
58015;SDS011;43809;52.110;20.964;2023-06-22T06:42:17;22.75;;;17.33;;
58015;SDS011;43809;52.110;20.964;2023-06-22T06:44:19;19.15;;;16.27;;
58015;SDS011;43809;52.110;20.964;2023-06-22T06:46:19;18.97;;;15.40;;
58015;SDS011;43809;52.110;20.964;2023-06-22T06:48:19;18.88;;;16.58;;
58015;SDS011;43809;52.110;20.964;2023-06-22T06:50:20;18.37;;;15.80;;
58015;SDS011;43809;52.110;20.964;2023-06-22T06:52:20;17.52;;;15.60;;
58015;SDS011;43809;52.110;20.964;2023-06-22T06:54:20;16.63;;;14.70;;
58015;SDS011;43809;52.110;20.964;2023-06-22T06:56:20;19.70;;;16.27;;
58015;SDS011;43809;52.110;20.964;2023-06-22T06:58:21;17.37;;;14.77;;
58015;SDS011;43809;52.110;20.964;2023-06-22T07:00:22;15.82;;;14.05;;
58015;SDS011;43809;52.110;20.964;2023-06-22T07:02:23;16.55;;;14.80;;
58015;SDS011;43809;52.110;20.964;2023-06-22T07:04:24;17.08;;;14.13;;
58015;SDS011;43809;52.110;20.964;2023-06-22T07:06:24;13.57;;;12.17;;
58015;SDS011;43809;52.110;20.964;2023-06-22T07:08:31;14.02;;;12.27;;
58015;SDS011;43809;52.110;20.964;2023-06-22T07:10:31;13.15;;;11.50;;
58015;SDS011;43809;52.110;20.964;2023-06-22T07:12:31;13.32;;;11.60;;
58015;SDS011;43809;52.110;20.964;2023-06-22T07:14:31;12.38;;;11.02;;
58015;SDS011;43809;52.110;20.964;2023-06-22T07:16:32;12.57;;;11.27;;
58015;SDS011;43809;52.110;20.964;2023-06-22T07:18:32;11.77;;;10.68;;
58015;SDS011;43809;52.110;20.964;2023-06-22T07:20:33;11.80;;;9.63;;
58015;SDS011;43809;52.110;20.964;2023-06-22T07:22:33;11.43;;;10.23;;
58015;SDS011;43809;52.110;20.964;2023-06-22T07:24:33;11.43;;;10.23;;
58015;SDS011;43809;52.110;20.964;2023-06-22T07:26:33;13.17;;;10.77;;
58015;SDS011;43809;52.110;20.964;2023-06-22T07:30:38;12.93;;;10.32;;
58015;SDS011;43809;52.110;20.964;2023-06-22T07:32:38;14.97;;;11.57;;
58015;SDS011;43809;52.110;20.964;2023-06-22T07:34:38;12.70;;;10.87;;
58015;SDS011;43809;52.110;20.964;2023-06-22T07:36:38;10.40;;;9.30;;
58015;SDS011;43809;52.110;20.964;2023-06-22T07:38:39;11.50;;;9.43;;
58015;SDS011;43809;52.110;20.964;2023-06-22T07:40:40;13.57;;;11.03;;
58015;SDS011;43809;52.110;20.964;2023-06-22T07:42:41;10.07;;;9.00;;
58015;SDS011;43809;52.110;20.964;2023-06-22T07:44:42;13.45;;;11.57;;
58015;SDS011;43809;52.110;20.964;2023-06-22T07:46:42;16.87;;;10.50;;
58015;SDS011;43809;52.110;20.964;2023-06-22T07:48:42;11.30;;;8.87;;
58015;SDS011;43809;52.110;20.964;2023-06-22T07:50:43;11.85;;;8.30;;
58015;SDS011;43809;52.110;20.964;2023-06-22T07:52:44;9.97;;;7.47;;
58015;SDS011;43809;52.110;20.964;2023-06-22T07:54:44;10.33;;;8.60;;
58015;SDS011;43809;52.110;20.964;2023-06-22T07:56:45;8.57;;;7.43;;
58015;SDS011;43809;52.110;20.964;2023-06-22T07:58:53;9.00;;;7.55;;
58015;SDS011;43809;52.110;20.964;2023-06-22T08:00:54;8.13;;;7.32;;
58015;SDS011;43809;52.110;20.964;2023-06-22T08:02:55;8.27;;;7.53;;
58015;SDS011;43809;52.110;20.964;2023-06-22T08:04:55;7.85;;;7.00;;
58015;SDS011;43809;52.110;20.964;2023-06-22T08:06:55;7.43;;;6.73;;
58015;SDS011;43809;52.110;20.964;2023-06-22T08:08:55;7.30;;;6.60;;
58015;SDS011;43809;52.110;20.964;2023-06-22T08:10:58;8.30;;;6.80;;
58015;SDS011;43809;52.110;20.964;2023-06-22T08:12:59;7.13;;;5.60;;
58015;SDS011;43809;52.110;20.964;2023-06-22T08:14:59;10.20;;;6.87;;
58015;SDS011;43809;52.110;20.964;2023-06-22T08:16:59;9.37;;;7.37;;
58015;SDS011;43809;52.110;20.964;2023-06-22T08:18:59;6.83;;;6.00;;
58015;SDS011;43809;52.110;20.964;2023-06-22T08:20:59;7.57;;;6.50;;
58015;SDS011;43809;52.110;20.964;2023-06-22T08:23:00;8.13;;;6.00;;
58015;SDS011;43809;52.110;20.964;2023-06-22T08:25:05;7.03;;;6.22;;
58015;SDS011;43809;52.110;20.964;2023-06-22T08:27:10;7.63;;;6.53;;
58015;SDS011;43809;52.110;20.964;2023-06-22T08:29:11;6.25;;;5.70;;
58015;SDS011;43809;52.110;20.964;2023-06-22T08:31:12;6.93;;;5.57;;
58015;SDS011;43809;52.110;20.964;2023-06-22T08:33:13;6.78;;;6.00;;
58015;SDS011;43809;52.110;20.964;2023-06-22T08:35:26;5.93;;;5.27;;
58015;SDS011;43809;52.110;20.964;2023-06-22T08:39:30;7.00;;;4.90;;
58015;SDS011;43809;52.110;20.964;2023-06-22T08:41:30;7.60;;;4.70;;
58015;SDS011;43809;52.110;20.964;2023-06-22T08:43:45;4.97;;;4.23;;
58015;SDS011;43809;52.110;20.964;2023-06-22T08:45:57;5.95;;;4.13;;
58015;SDS011;43809;52.110;20.964;2023-06-22T08:47:58;5.88;;;4.47;;
58015;SDS011;43809;52.110;20.964;2023-06-22T08:49:58;5.23;;;4.07;;
58015;SDS011;43809;52.110;20.964;2023-06-22T08:51:58;5.77;;;4.50;;
58015;SDS011;43809;52.110;20.964;2023-06-22T08:53:58;4.70;;;4.20;;
58015;SDS011;43809;52.110;20.964;2023-06-22T08:55:58;4.27;;;3.77;;
58015;SDS011;43809;52.110;20.964;2023-06-22T08:57:59;5.22;;;4.18;;
58015;SDS011;43809;52.110;20.964;2023-06-22T08:59:59;5.03;;;3.80;;
58015;SDS011;43809;52.110;20.964;2023-06-22T09:01:59;4.00;;;3.70;;
58015;SDS011;43809;52.110;20.964;2023-06-22T09:03:59;6.23;;;4.17;;
58015;SDS011;43809;52.110;20.964;2023-06-22T09:06:00;4.90;;;3.80;;
58015;SDS011;43809;52.110;20.964;2023-06-22T09:08:03;6.38;;;3.80;;
58015;SDS011;43809;52.110;20.964;2023-06-22T09:10:03;7.28;;;3.95;;
58015;SDS011;43809;52.110;20.964;2023-06-22T09:12:10;6.43;;;3.90;;
58015;SDS011;43809;52.110;20.964;2023-06-22T09:14:18;7.00;;;3.85;;
58015;SDS011;43809;52.110;20.964;2023-06-22T09:16:18;4.00;;;3.40;;
58015;SDS011;43809;52.110;20.964;2023-06-22T09:18:19;5.15;;;3.03;;
58015;SDS011;43809;52.110;20.964;2023-06-22T09:20:19;4.37;;;3.50;;
58015;SDS011;43809;52.110;20.964;2023-06-22T09:22:19;3.58;;;3.28;;
58015;SDS011;43809;52.110;20.964;2023-06-22T09:24:20;4.47;;;3.10;;
58015;SDS011;43809;52.110;20.964;2023-06-22T09:26:20;4.03;;;3.17;;
58015;SDS011;43809;52.110;20.964;2023-06-22T09:28:23;4.05;;;3.10;;
58015;SDS011;43809;52.110;20.964;2023-06-22T09:30:24;6.03;;;3.70;;
58015;SDS011;43809;52.110;20.964;2023-06-22T09:32:24;3.53;;;3.20;;
58015;SDS011;43809;52.110;20.964;2023-06-22T09:34:25;19.37;;;3.97;;
58015;SDS011;43809;52.110;20.964;2023-06-22T09:36:28;3.45;;;2.70;;
58015;SDS011;43809;52.110;20.964;2023-06-22T09:38:30;5.82;;;3.08;;
58015;SDS011;43809;52.110;20.964;2023-06-22T09:40:31;3.22;;;2.58;;
58015;SDS011;43809;52.110;20.964;2023-06-22T09:42:35;8.40;;;3.40;;
58015;SDS011;43809;52.110;20.964;2023-06-22T09:44:46;3.60;;;3.17;;
58015;SDS011;43809;52.110;20.964;2023-06-22T09:46:47;3.45;;;2.72;;
58015;SDS011;43809;52.110;20.964;2023-06-22T09:48:47;3.23;;;2.87;;
58015;SDS011;43809;52.110;20.964;2023-06-22T09:50:47;3.37;;;2.37;;
58015;SDS011;43809;52.110;20.964;2023-06-22T09:52:47;4.80;;;3.17;;
58015;SDS011;43809;52.110;20.964;2023-06-22T09:54:50;3.20;;;2.60;;
58015;SDS011;43809;52.110;20.964;2023-06-22T09:56:50;18.45;;;3.95;;
58015;SDS011;43809;52.110;20.964;2023-06-22T09:58:51;5.03;;;3.07;;
58015;SDS011;43809;52.110;20.964;2023-06-22T10:00:54;3.58;;;2.70;;
58015;SDS011;43809;52.110;20.964;2023-06-22T10:02:55;3.67;;;2.67;;
58015;SDS011;43809;52.110;20.964;2023-06-22T10:04:55;3.70;;;2.97;;
58015;SDS011;43809;52.110;20.964;2023-06-22T10:06:56;3.40;;;2.80;;
58015;SDS011;43809;52.110;20.964;2023-06-22T10:11:32;3.72;;;2.90;;
58015;SDS011;43809;52.110;20.964;2023-06-22T10:13:34;3.83;;;3.33;;
58015;SDS011;43809;52.110;20.964;2023-06-22T10:15:35;4.35;;;3.50;;
58015;SDS011;43809;52.110;20.964;2023-06-22T10:17:35;3.80;;;3.03;;
58015;SDS011;43809;52.110;20.964;2023-06-22T10:19:35;7.73;;;3.30;;
58015;SDS011;43809;52.110;20.964;2023-06-22T10:23:37;4.25;;;3.15;;
58015;SDS011;43809;52.110;20.964;2023-06-22T10:25:37;3.50;;;3.20;;
58015;SDS011;43809;52.110;20.964;2023-06-22T10:27:37;4.20;;;3.23;;
58015;SDS011;43809;52.110;20.964;2023-06-22T10:29:41;3.42;;;3.10;;
58015;SDS011;43809;52.110;20.964;2023-06-22T10:31:41;5.15;;;3.58;;
58015;SDS011;43809;52.110;20.964;2023-06-22T10:33:50;3.63;;;3.30;;
58015;SDS011;43809;52.110;20.964;2023-06-22T10:35:50;11.93;;;4.32;;
58015;SDS011;43809;52.110;20.964;2023-06-22T10:37:50;9.45;;;4.13;;
58015;SDS011;43809;52.110;20.964;2023-06-22T10:39:51;3.93;;;3.60;;
58015;SDS011;43809;52.110;20.964;2023-06-22T10:41:51;4.57;;;3.35;;
58015;SDS011;43809;52.110;20.964;2023-06-22T10:43:51;7.27;;;3.90;;
58015;SDS011;43809;52.110;20.964;2023-06-22T10:45:51;7.13;;;4.37;;
58015;SDS011;43809;52.110;20.964;2023-06-22T10:47:52;4.00;;;3.60;;
58015;SDS011;43809;52.110;20.964;2023-06-22T10:49:52;4.53;;;4.07;;
58015;SDS011;43809;52.110;20.964;2023-06-22T10:53:57;4.43;;;3.78;;
58015;SDS011;43809;52.110;20.964;2023-06-22T10:55:57;11.07;;;4.18;;
58015;SDS011;43809;52.110;20.964;2023-06-22T10:57:58;4.25;;;3.70;;
58015;SDS011;43809;52.110;20.964;2023-06-22T10:59:58;9.65;;;4.10;;
58015;SDS011;43809;52.110;20.964;2023-06-22T11:01:58;8.27;;;3.83;;
58015;SDS011;43809;52.110;20.964;2023-06-22T11:03:58;3.95;;;2.90;;
58015;SDS011;43809;52.110;20.964;2023-06-22T11:05:59;5.10;;;4.18;;
58015;SDS011;43809;52.110;20.964;2023-06-22T11:07:59;4.30;;;3.90;;
58015;SDS011;43809;52.110;20.964;2023-06-22T11:09:59;7.63;;;4.13;;
58015;SDS011;43809;52.110;20.964;2023-06-22T11:11:59;5.55;;;3.63;;
58015;SDS011;43809;52.110;20.964;2023-06-22T11:13:59;10.38;;;4.55;;
58015;SDS011;43809;52.110;20.964;2023-06-22T11:16:00;4.32;;;3.92;;
58015;SDS011;43809;52.110;20.964;2023-06-22T11:18:00;4.55;;;4.10;;
58015;SDS011;43809;52.110;20.964;2023-06-22T11:20:00;5.03;;;4.10;;
58015;SDS011;43809;52.110;20.964;2023-06-22T11:22:01;5.03;;;4.47;;
58015;SDS011;43809;52.110;20.964;2023-06-22T11:24:01;6.07;;;3.95;;
58015;SDS011;43809;52.110;20.964;2023-06-22T11:26:01;7.32;;;4.18;;
58015;SDS011;43809;52.110;20.964;2023-06-22T11:28:02;4.13;;;3.72;;
58015;SDS011;43809;52.110;20.964;2023-06-22T11:30:02;4.07;;;3.50;;
58015;SDS011;43809;52.110;20.964;2023-06-22T11:32:03;5.50;;;4.32;;
58015;SDS011;43809;52.110;20.964;2023-06-22T11:34:03;4.93;;;3.80;;
58015;SDS011;43809;52.110;20.964;2023-06-22T11:36:03;6.63;;;4.20;;
58015;SDS011;43809;52.110;20.964;2023-06-22T11:38:04;4.32;;;3.92;;
58015;SDS011;43809;52.110;20.964;2023-06-22T11:40:05;4.20;;;3.80;;
58015;SDS011;43809;52.110;20.964;2023-06-22T11:42:07;4.78;;;4.10;;
58015;SDS011;43809;52.110;20.964;2023-06-22T11:44:07;5.30;;;4.10;;
58015;SDS011;43809;52.110;20.964;2023-06-22T11:46:21;5.72;;;3.72;;
58015;SDS011;43809;52.110;20.964;2023-06-22T11:48:21;8.82;;;4.47;;
58015;SDS011;43809;52.110;20.964;2023-06-22T11:50:21;11.93;;;5.30;;
58015;SDS011;43809;52.110;20.964;2023-06-22T11:52:21;7.33;;;4.47;;
58015;SDS011;43809;52.110;20.964;2023-06-22T11:54:28;7.78;;;4.18;;
58015;SDS011;43809;52.110;20.964;2023-06-22T11:56:29;4.80;;;3.97;;
58015;SDS011;43809;52.110;20.964;2023-06-22T11:58:29;4.40;;;4.00;;
58015;SDS011;43809;52.110;20.964;2023-06-22T12:00:29;4.78;;;4.30;;
58015;SDS011;43809;52.110;20.964;2023-06-22T12:02:29;6.03;;;4.10;;
58015;SDS011;43809;52.110;20.964;2023-06-22T12:04:30;5.35;;;4.25;;
58015;SDS011;43809;52.110;20.964;2023-06-22T12:06:30;5.63;;;3.83;;
58015;SDS011;43809;52.110;20.964;2023-06-22T12:08:30;7.73;;;4.03;;
58015;SDS011;43809;52.110;20.964;2023-06-22T12:10:30;4.63;;;3.70;;
58015;SDS011;43809;52.110;20.964;2023-06-22T12:12:30;12.40;;;4.53;;
58015;SDS011;43809;52.110;20.964;2023-06-22T12:14:31;7.83;;;4.57;;
58015;SDS011;43809;52.110;20.964;2023-06-22T12:16:31;12.35;;;4.65;;
58015;SDS011;43809;52.110;20.964;2023-06-22T12:18:35;5.90;;;3.90;;
58015;SDS011;43809;52.110;20.964;2023-06-22T12:20:35;4.93;;;4.20;;
58015;SDS011;43809;52.110;20.964;2023-06-22T12:22:36;4.80;;;4.00;;
58015;SDS011;43809;52.110;20.964;2023-06-22T12:24:37;5.55;;;4.57;;
58015;SDS011;43809;52.110;20.964;2023-06-22T12:26:43;4.38;;;3.85;;